Time;durP1;ratioP1;P1;durP2;ratioP2;P2;SDS_P1;SDS_P2;PMS_P1;PMS_P2;Temp;Humidity;BMP_temperature;BMP_pressure;BME280_temperature;BME280_humidity;BME280_pressure;Samples;Min_cycle;Max_cycle;Signal;HPM_P1;HPM_P2
2024/01/18 00:00:17;;;;;;;179.63;7.50;;;;;;;19.42;51.80;96552.41;7295092;19;129628;-38
2024/01/18 00:02:42;;;;;;;223.80;9.60;;;;;;;19.47;51.82;96577.84;7292984;19;131534;-38
2024/01/18 00:05:09;;;;;;;240.63;10.18;;;;;;;19.40;51.36;96575.25;7290738;19;131050;-38
2024/01/18 00:07:34;;;;;;;178.50;7.57;;;;;;;19.35;52.06;96582.84;7288552;19;133226;-39
2024/01/18 00:09:59;;;;;;;195.63;7.85;;;;;;;19.36;52.39;96584.47;7288753;19;130307;-37
2024/01/18 00:12:25;;;;;;;242.60;10.00;;;;;;;19.36;51.98;96592.28;7290498;19;130407;-38
2024/01/18 00:14:50;;;;;;;371.67;15.65;;;;;;;19.36;52.02;96594.09;7286823;19;131309;-38
2024/01/18 00:17:16;;;;;;;185.02;7.38;;;;;;;19.36;52.09;96601.91;7290794;19;129451;-39
2024/01/18 00:19:42;;;;;;;218.75;9.35;;;;;;;19.62;51.40;96601.13;7292179;19;131335;-38
2024/01/18 00:22:07;;;;;;;197.07;8.55;;;;;;;19.62;51.27;96590.72;7291095;19;131307;-38
2024/01/18 00:24:32;;;;;;;168.18;7.25;;;;;;;19.68;51.70;96592.50;7288894;19;131189;-38
2024/01/18 00:26:58;;;;;;;252.35;10.25;;;;;;;19.71;51.47;96592.09;7286816;19;129937;-39
2024/01/18 00:29:23;;;;;;;182.73;7.72;;;;;;;19.71;51.12;96592.91;7291766;19;129418;-38
2024/01/18 00:31:48;;;;;;;179.73;7.72;;;;;;;19.69;51.37;96599.31;7289616;19;132166;-38
2024/01/18 00:34:14;;;;;;;213.68;8.88;;;;;;;19.67;51.81;96619.59;7290314;19;133225;-38
2024/01/18 00:36:39;;;;;;;225.27;9.38;;;;;;;19.61;52.12;96615.16;7283042;19;131292;-39
2024/01/18 00:39:10;;;;;;;199.10;8.48;;;;;;;19.67;51.52;96628.19;7287522;19;130235;-39
2024/01/18 00:41:38;;;;;;;118.45;4.95;;;;;;;19.71;51.94;96633.81;7284971;19;131833;-36
2024/01/18 00:44:04;;;;;;;234.55;9.45;;;;;;;19.70;51.42;96635.59;7291062;19;130423;-39
2024/01/18 00:46:30;;;;;;;217.43;8.55;;;;;;;19.71;52.07;96641.63;7290507;19;132036;-40
2024/01/18 00:48:55;;;;;;;183.98;8.27;;;;;;;19.64;52.22;96635.59;7291800;19;130855;-35
2024/01/18 00:51:20;;;;;;;143.10;6.00;;;;;;;19.68;51.80;96631.59;7292350;19;130543;-35
2024/01/18 00:53:46;;;;;;;188.20;8.00;;;;;;;19.55;51.65;96639.41;7292132;19;129954;-37
2024/01/18 00:56:12;;;;;;;196.25;8.32;;;;;;;19.40;52.34;96640.38;7292851;19;129656;-37
2024/01/18 00:58:41;;;;;;;163.23;7.07;;;;;;;19.35;52.55;96661.00;7290778;19;130218;-37
2024/01/18 01:01:06;;;;;;;172.30;7.37;;;;;;;19.33;52.51;96664.81;7292244;19;129629;-42
2024/01/18 01:03:31;;;;;;;195.38;7.90;;;;;;;19.33;52.22;96665.63;7290733;19;129626;-39
2024/01/18 01:05:57;;;;;;;159.27;6.63;;;;;;;19.32;52.35;96674.41;7291749;19;128989;-37
2024/01/18 01:08:22;;;;;;;157.48;6.57;;;;;;;19.30;52.83;96681.63;7291317;19;129054;-37
2024/01/18 01:10:47;;;;;;;178.45;7.68;;;;;;;19.34;52.03;96688.06;7291748;19;130295;-37
2024/01/18 01:13:13;;;;;;;220.60;9.40;;;;;;;19.42;51.73;96685.28;7293280;19;132078;-41
2024/01/18 01:15:38;;;;;;;196.85;8.32;;;;;;;19.53;51.39;96690.91;7291420;19;130227;-37
2024/01/18 01:18:04;;;;;;;257.15;10.90;;;;;;;19.57;52.13;96692.13;7283463;19;130019;-37
2024/01/18 01:20:29;;;;;;;157.20;6.65;;;;;;;19.57;51.48;96692.13;7291812;19;130788;-35
2024/01/18 01:22:54;;;;;;;246.77;10.20;;;;;;;19.59;52.11;96696.13;7291265;19;130440;-39
2024/01/18 01:25:22;;;;;;;234.02;9.95;;;;;;;19.60;51.55;96702.97;7290460;19;130171;-42
2024/01/18 01:27:47;;;;;;;197.88;8.52;;;;;;;19.61;51.50;96704.56;7290826;19;130096;-37
2024/01/18 01:30:13;;;;;;;168.32;6.95;;;;;;;19.62;51.59;96708.00;7291266;19;130071;-40
2024/01/18 01:32:38;;;;;;;254.82;10.50;;;;;;;19.65;52.08;96720.63;7291879;19;130871;-37
2024/01/18 01:35:04;;;;;;;242.52;10.60;;;;;;;19.64;51.92;96724.19;7289879;19;129741;-40
2024/01/18 01:37:29;;;;;;;156.70;6.93;;;;;;;19.66;51.61;96727.44;7290771;19;129429;-37
2024/01/18 01:39:54;;;;;;;255.73;11.02;;;;;;;19.52;51.98;96720.59;7287518;19;130389;-37
2024/01/18 01:42:19;;;;;;;231.95;9.48;;;;;;;19.65;51.81;96738.84;7291237;19;132719;-39
2024/01/18 01:44:45;;;;;;;200.15;8.65;;;;;;;19.53;52.40;96732.59;7291360;19;131015;-38
2024/01/18 01:47:10;;;;;;;150.15;6.20;;;;;;;19.58;52.02;96746.66;7288625;19;129705;-40
2024/01/18 01:49:36;;;;;;;226.75;9.35;;;;;;;19.43;52.33;96752.03;7287613;19;129036;-36
2024/01/18 01:52:02;;;;;;;178.30;7.68;;;;;;;19.35;52.22;96757.38;7290578;19;129811;-38
2024/01/18 01:54:29;;;;;;;187.52;7.85;;;;;;;19.30;52.79;96758.97;7291718;19;131010;-41
2024/01/18 01:56:57;;;;;;;206.30;8.65;;;;;;;19.28;52.66;96760.94;7289281;19;130566;-41
2024/01/18 01:59:23;;;;;;;222.00;9.20;;;;;;;19.29;52.38;96771.19;7288089;19;131217;-40
2024/01/18 02:01:49;;;;;;;220.55;9.38;;;;;;;19.24;51.34;96760.50;7290134;19;130388;-38
2024/01/18 02:04:15;;;;;;;181.13;7.43;;;;;;;19.42;51.53;96776.44;7288046;19;129517;-37
2024/01/18 02:06:41;;;;;;;177.50;7.50;;;;;;;19.62;51.28;96789.56;7289796;19;130364;-42
2024/01/18 02:09:08;;;;;;;244.77;10.18;;;;;;;20.13;49.58;96779.47;7289323;19;132587;-35
2024/01/18 02:11:35;;;;;;;111.30;5.03;;;;;;;20.52;49.15;96782.16;7290864;19;129694;-39
2024/01/18 02:14:00;;;;;;;218.23;9.30;;;;;;;20.67;48.67;96780.94;7290047;19;131395;-38
2024/01/18 02:16:26;;;;;;;91.45;4.25;;;;;;;20.81;48.21;96794.78;7287015;19;129106;-36
2024/01/18 02:18:51;;;;;;;256.30;10.80;;;;;;;20.83;48.58;96792.78;7289236;19;132819;-40
2024/01/18 02:21:17;;;;;;;186.25;7.65;;;;;;;20.86;48.18;96799.41;7289995;19;131279;-39
2024/01/18 02:23:46;;;;;;;190.35;7.72;;;;;;;20.81;48.84;96810.44;7289247;19;129660;-41
2024/01/18 02:26:11;;;;;;;162.60;6.97;;;;;;;20.70;48.40;96805.84;7287387;19;129547;-40
2024/01/18 02:28:37;;;;;;;234.55;9.45;;;;;;;20.72;49.12;96814.28;7288351;19;130080;-41
2024/01/18 02:31:02;;;;;;;189.00;8.10;;;;;;;20.65;48.68;96826.50;7295434;19;129149;-41
2024/01/18 02:33:27;;;;;;;165.77;7.32;;;;;;;20.63;49.30;96825.91;7297434;19;129695;-38
2024/01/18 02:35:53;;;;;;;224.15;9.68;;;;;;;20.47;49.92;96821.91;7292279;19;129977;-37
2024/01/18 02:38:19;;;;;;;239.98;9.88;;;;;;;20.44;49.71;96824.88;7296214;19;130184;-40
2024/01/18 02:40:45;;;;;;;237.65;10.05;;;;;;;20.27;50.03;96830.69;7296115;19;130661;-41
2024/01/18 02:43:10;;;;;;;138.40;6.07;;;;;;;19.97;50.38;96831.97;7292806;19;131461;-35
2024/01/18 02:45:36;;;;;;;139.82;5.90;;;;;;;19.81;50.49;96838.38;7295053;19;130569;-37
2024/01/18 02:48:02;;;;;;;254.43;10.80;;;;;;;19.70;51.23;96838.13;7295081;19;130825;-39
2024/01/18 02:50:27;;;;;;;195.43;8.27;;;;;;;19.45;51.27;96820.34;7297370;19;131630;-40
2024/01/18 02:52:53;;;;;;;197.15;8.48;;;;;;;19.57;50.96;96846.66;7295084;19;130661;-43
2024/01/18 02:55:18;;;;;;;164.68;7.00;;;;;;;19.52;50.94;96840.44;7296176;19;130480;-42
2024/01/18 02:57:44;;;;;;;198.90;8.18;;;;;;;19.61;50.77;96829.66;7296203;19;130128;-38
2024/01/18 03:00:11;;;;;;;222.27;9.07;;;;;;;19.85;50.98;96836.19;7294685;19;130790;-40
2024/01/18 03:02:37;;;;;;;117.22;5.18;;;;;;;19.92;51.10;96847.41;7295917;19;130626;-40
2024/01/18 03:05:02;;;;;;;275.08;12.02;;;;;;;19.90;51.02;96852.81;7295556;19;129273;-40
2024/01/18 03:07:28;;;;;;;223.50;8.93;;;;;;;19.91;50.55;96853.63;7297176;19;129856;-41
2024/01/18 03:09:54;;;;;;;144.60;6.47;;;;;;;19.97;50.83;96856.25;7292498;19;133439;-39
2024/01/18 03:12:19;;;;;;;172.35;7.20;;;;;;;19.91;51.19;96858.84;7291398;19;129339;-43
2024/01/18 03:14:45;;;;;;;203.95;8.23;;;;;;;19.89;51.50;96864.25;7296006;19;129633;-39
2024/01/18 03:17:10;;;;;;;178.50;7.30;;;;;;;19.90;51.62;96857.25;7296058;19;129302;-39
2024/01/18 03:19:35;;;;;;;203.70;8.88;;;;;;;19.82;51.29;96865.22;7291491;19;130357;-40
2024/01/18 03:22:01;;;;;;;205.10;8.95;;;;;;;19.82;51.74;96860.00;7295621;19;130446;-40
2024/01/18 03:24:26;;;;;;;211.70;8.77;;;;;;;19.76;51.40;96866.00;7293754;19;130072;-43
2024/01/18 03:26:52;;;;;;;213.15;9.32;;;;;;;19.82;51.42;96876.47;7294348;19;130067;-38
2024/01/18 03:29:17;;;;;;;211.90;8.52;;;;;;;19.79;51.54;96889.06;7290357;19;130393;-43
2024/01/18 03:31:43;;;;;;;100.78;4.70;;;;;;;19.64;51.41;96876.16;7295251;19;129927;-43
2024/01/18 03:34:08;;;;;;;173.85;7.07;;;;;;;19.54;51.46;96890.53;7295064;19;129988;-43
2024/01/18 03:36:34;;;;;;;198.18;8.27;;;;;;;19.47;51.53;96897.53;7293545;19;130483;-43
2024/01/18 03:38:59;;;;;;;249.38;10.77;;;;;;;19.45;51.61;96892.50;7292842;19;130673;-37
2024/01/18 03:41:24;;;;;;;176.95;7.47;;;;;;;19.43;51.47;96902.31;7292125;19;129715;-42
2024/01/18 03:43:50;;;;;;;196.77;8.07;;;;;;;19.42;52.45;96905.91;7293991;19;129447;-37
2024/01/18 03:46:15;;;;;;;171.48;7.10;;;;;;;19.44;51.71;96909.13;7293903;19;131708;-38
2024/01/18 03:48:41;;;;;;;186.38;7.80;;;;;;;19.26;50.64;96887.94;7293575;19;129616;-40
2024/01/18 03:51:07;;;;;;;201.88;8.68;;;;;;;19.58;50.55;96891.78;7292295;19;130028;-39
2024/01/18 03:53:33;;;;;;;179.07;7.32;;;;;;;19.91;50.85;96911.00;7293622;19;129546;-37
2024/01/18 03:55:58;;;;;;;214.07;9.15;;;;;;;19.88;50.35;96887.91;7293630;19;131134;-37
2024/01/18 03:58:23;;;;;;;229.05;9.48;;;;;;;20.10;50.53;96928.50;7292585;19;131233;-40
2024/01/18 04:00:49;;;;;;;212.20;8.75;;;;;;;20.04;50.87;96939.72;7292429;19;129842;-42
2024/01/18 04:03:14;;;;;;;147.60;6.53;;;;;;;20.07;50.64;96944.56;7293471;19;129775;-38
2024/01/18 04:05:39;;;;;;;175.52;7.32;;;;;;;19.96;50.33;96921.66;7292836;19;129525;-38
2024/01/18 04:08:05;;;;;;;173.77;7.65;;;;;;;19.92;50.33;96923.03;7292795;19;130647;-37
2024/01/18 04:10:30;;;;;;;235.55;9.65;;;;;;;20.03;50.50;96945.97;7293944;19;131479;-37
2024/01/18 04:12:56;;;;;;;203.80;8.73;;;;;;;20.03;50.91;96957.19;7294311;19;130071;-38
2024/01/18 04:15:22;;;;;;;176.87;7.73;;;;;;;20.03;50.71;96949.34;7291908;19;132744;-39
2024/01/18 04:17:47;;;;;;;167.35;6.68;;;;;;;19.98;50.96;96966.59;7293945;19;130314;-38
2024/01/18 04:20:16;;;;;;;175.48;7.05;;;;;;;19.98;50.93;96966.59;7291459;19;130068;-36
2024/01/18 04:22:43;;;;;;;207.95;8.85;;;;;;;19.99;51.20;96978.63;7292898;19;129258;-36
2024/01/18 04:25:09;;;;;;;;;;;;;;;19.76;51.84;96978.09;7293437;19;130263;-38
2024/01/18 04:27:34;;;;;;;121.32;5.07;;;;;;;19.57;51.82;96987.38;7294236;19;129690;-42
2024/01/18 04:29:59;;;;;;;252.02;10.70;;;;;;;19.47;51.41;96978.31;7288470;19;130321;-37
2024/01/18 04:32:25;;;;;;;165.68;7.00;;;;;;;19.44;52.00;96987.28;7293854;19;131591;-38
2024/01/18 04:34:51;;;;;;;272.40;11.98;;;;;;;19.40;51.91;96984.25;7287444;19;130966;-39
2024/01/18 04:37:16;;;;;;;160.13;6.68;;;;;;;19.43;51.28;96989.09;7288125;19;130981;-39
2024/01/18 04:39:42;;;;;;;208.75;8.63;;;;;;;19.31;51.50;96980.19;7289882;19;131508;-35
2024/01/18 04:42:10;;;;;;;150.60;6.33;;;;;;;19.43;50.85;96963.06;7290282;19;130919;-39
2024/01/18 04:44:36;;;;;;;254.70;10.18;;;;;;;19.73;51.00;96973.25;7286385;19;130918;-39
2024/01/18 04:47:01;;;;;;;206.75;8.88;;;;;;;19.96;50.15;96984.22;7290335;19;131794;-37
2024/01/18 04:49:27;;;;;;;167.55;7.13;;;;;;;20.20;50.20;96981.16;7289721;19;129891;-38
2024/01/18 04:51:52;;;;;;;174.23;7.28;;;;;;;20.10;49.75;96944.97;7289180;19;129371;-40
2024/01/18 04:54:17;;;;;;;201.25;8.52;;;;;;;20.36;49.69;96970.41;7289088;19;129790;-38
2024/01/18 04:56:43;;;;;;;164.00;6.97;;;;;;;20.38;49.64;96973.59;7291866;19;131079;-39
2024/01/18 04:59:08;;;;;;;199.52;8.40;;;;;;;20.58;49.60;96977.91;7291539;19;130558;-43
2024/01/18 05:01:38;;;;;;;168.75;6.95;;;;;;;20.52;48.66;96955.22;7288861;19;129130;-42
2024/01/18 05:04:04;;;;;;;235.55;9.93;;;;;;;20.49;49.02;96955.56;7289459;19;130289;-40
2024/01/18 05:06:29;;;;;;;177.25;7.10;;;;;;;20.73;48.62;96982.97;7289533;19;131322;-38
2024/01/18 05:08:55;;;;;;;224.95;9.10;;;;;;;20.73;48.50;96982.97;7292197;19;129931;-38
2024/01/18 05:11:20;;;;;;;174.70;7.38;;;;;;;20.75;48.47;96991.41;7289267;19;131246;-43
2024/01/18 05:13:46;;;;;;;163.30;6.82;;;;;;;20.81;48.94;97000.25;7290037;19;130043;-41
2024/01/18 05:16:11;;;;;;;257.48;10.77;;;;;;;20.51;49.15;97010.22;7287806;19;132321;-40
2024/01/18 05:18:36;;;;;;;195.98;8.23;;;;;;;20.09;49.06;96979.09;7288973;19;131923;-42
2024/01/18 05:21:02;;;;;;;211.27;8.95;;;;;;;20.13;49.25;97019.44;7289556;19;130935;-40
2024/01/18 05:23:27;;;;;;;98.45;4.47;;;;;;;19.85;49.80;97005.63;7288209;19;130487;-42
2024/01/18 05:25:52;;;;;;;190.20;7.72;;;;;;;19.95;49.65;97045.22;7289185;19;130398;-43
2024/01/18 05:28:18;;;;;;;167.60;7.00;;;;;;;19.88;50.02;97039.16;7290565;19;131480;-39
2024/01/18 05:30:43;;;;;;;187.70;7.78;;;;;;;19.83;50.14;97050.16;7290957;19;132364;-40
2024/01/18 05:33:09;;;;;;;222.25;9.68;;;;;;;19.95;49.92;97034.78;7290231;19;131219;-40
2024/01/18 05:35:34;;;;;;;194.48;7.78;;;;;;;20.16;49.71;97047.78;7290360;19;130358;-43
2024/01/18 05:37:59;;;;;;;172.68;7.03;;;;;;;20.01;50.32;97029.59;7289668;19;129735;-43
2024/01/18 05:40:25;;;;;;;163.40;6.93;;;;;;;20.08;49.97;97048.69;7290750;19;129061;-41
2024/01/18 05:42:50;;;;;;;192.63;7.75;;;;;;;20.01;50.64;97054.88;7292323;19;130365;-37
2024/01/18 05:45:16;;;;;;;249.52;11.00;;;;;;;19.97;50.19;97053.63;7287458;19;131279;-39
2024/01/18 05:47:41;;;;;;;171.48;6.85;;;;;;;19.93;50.53;97057.63;7288099;19;129147;-43
2024/01/18 05:50:08;;;;;;;202.02;8.35;;;;;;;19.92;50.71;97056.00;7288832;19;129802;-37
2024/01/18 05:52:33;;;;;;;238.57;9.70;;;;;;;19.85;51.16;97052.56;7287588;19;130312;-39
2024/01/18 05:54:59;;;;;;;232.50;9.48;;;;;;;19.79;51.15;97053.31;7292590;19;131627;-42
2024/01/18 05:57:25;;;;;;;186.07;7.72;;;;;;;19.78;51.33;97049.09;7288180;19;130239;-38
2024/01/18 05:59:50;;;;;;;145.77;5.95;;;;;;;19.74;51.32;97038.25;7287068;19;130403;-39
2024/01/18 06:02:15;;;;;;;268.50;11.30;;;;;;;19.71;51.42;97037.81;7290202;19;130948;-39
2024/01/18 06:04:41;;;;;;;216.27;8.93;;;;;;;19.68;51.78;97043.41;7291449;19;130925;-38
2024/01/18 06:07:06;;;;;;;254.25;10.98;;;;;;;19.63;51.97;97045.78;7289425;19;129644;-38
2024/01/18 06:09:31;;;;;;;192.38;7.85;;;;;;;19.62;51.85;97070.22;7288689;19;129510;-38
2024/01/18 06:11:57;;;;;;;221.52;8.90;;;;;;;19.70;51.33;97070.09;7297304;19;130139;-38
2024/01/18 06:14:22;;;;;;;183.98;7.65;;;;;;;19.77;50.29;97074.34;7295578;19;132552;-39
2024/01/18 06:16:47;;;;;;;248.82;10.25;;;;;;;19.68;49.84;97044.22;7293842;19;132088;-39
2024/01/18 06:19:13;;;;;;;260.25;11.00;;;;;;;19.85;50.35;97066.38;7293306;19;130011;-39
2024/01/18 06:21:38;;;;;;;255.27;10.48;;;;;;;19.88;49.54;97086.06;7292737;19;130302;-39
2024/01/18 06:24:04;;;;;;;190.82;8.10;;;;;;;19.90;49.52;97091.91;7294273;19;129632;-39
2024/01/18 06:26:30;;;;;;;169.03;7.07;;;;;;;19.84;50.87;97080.44;7294714;19;131078;-39
2024/01/18 06:28:55;;;;;;;164.30;7.25;;;;;;;19.65;50.81;97051.59;7295259;19;129670;-39
2024/01/18 06:31:26;;;;;;;257.45;10.35;;;;;;;19.78;50.78;97073.38;7293733;19;130733;-39
2024/01/18 06:33:56;;;;;;;210.88;8.60;;;;;;;19.70;51.16;97076.09;7297014;19;130282;-39
2024/01/18 06:36:22;;;;;;;158.75;7.18;;;;;;;19.68;51.21;97069.47;7292440;19;131523;-38
2024/01/18 06:38:49;;;;;;;191.65;7.78;;;;;;;19.67;50.67;97063.44;7293058;19;132019;-39
2024/01/18 06:41:15;;;;;;;279.45;11.73;;;;;;;19.70;50.62;97067.50;7295992;19;130983;-39
2024/01/18 06:43:40;;;;;;;132.85;5.90;;;;;;;19.69;50.64;97081.50;7296444;19;129183;-39
2024/01/18 06:46:15;;;;;;;197.80;8.15;;;;;;;19.67;51.55;97088.72;7294117;19;130082;-39
2024/01/18 06:48:41;;;;;;;136.45;6.05;;;;;;;19.70;50.76;97085.72;7294110;19;130676;-39
2024/01/18 06:51:06;;;;;;;246.95;10.23;;;;;;;19.74;51.12;97094.78;7296640;19;130860;-39
2024/01/18 06:53:31;;;;;;;223.85;9.48;;;;;;;19.76;51.37;97092.78;7294207;19;130403;-39
2024/01/18 06:55:57;;;;;;;141.38;6.00;;;;;;;19.73;51.08;97095.78;7296197;19;129258;-38
2024/01/18 06:58:22;;;;;;;140.77;5.97;;;;;;;19.78;51.34;97106.44;7294629;19;130186;-39
2024/01/18 07:00:47;;;;;;;239.18;9.80;;;;;;;19.77;50.89;97099.59;7295799;19;130906;-44
2024/01/18 07:03:13;;;;;;;220.20;9.27;;;;;;;19.82;51.05;97089.41;7294423;19;129911;-42
2024/01/18 07:05:38;;;;;;;176.68;7.35;;;;;;;19.80;51.11;97100.03;7295532;19;130653;-39
2024/01/18 07:08:04;;;;;;;175.30;7.53;;;;;;;19.92;50.69;97103.75;7295659;19;132265;-38
2024/01/18 07:10:29;;;;;;;213.10;8.43;;;;;;;19.86;51.13;97108.91;7294346;19;129583;-42
2024/01/18 07:12:55;;;;;;;202.73;8.18;;;;;;;19.79;51.63;97110.66;7295251;19;131187;-43
2024/01/18 07:15:20;;;;;;;202.90;8.77;;;;;;;19.55;51.34;97095.44;7292712;19;129380;-40
2024/01/18 07:17:45;;;;;;;202.05;8.02;;;;;;;19.59;51.48;97112.28;7294655;19;129614;-39
2024/01/18 07:20:11;;;;;;;205.70;8.95;;;;;;;19.57;51.58;97088.22;7296020;19;130808;-40
2024/01/18 07:22:36;;;;;;;183.35;7.97;;;;;;;19.56;51.19;97107.44;7295353;19;131379;-36
2024/01/18 07:25:03;;;;;;;116.72;5.25;;;;;;;19.53;50.99;97123.47;7290935;19;131266;-35
2024/01/18 07:27:29;;;;;;;193.98;8.23;;;;;;;19.55;51.25;97126.69;7294591;19;129478;-38
2024/01/18 07:29:54;;;;;;;207.00;8.45;;;;;;;19.57;50.96;97124.72;7294453;19;130749;-40
2024/01/18 07:32:20;;;;;;;150.07;6.82;;;;;;;19.61;51.16;97120.72;7295008;19;131527;-44
2024/01/18 07:34:45;;;;;;;109.50;4.90;;;;;;;19.97;50.07;97139.69;7294613;19;129846;-42
2024/01/18 07:37:14;;;;;;;211.48;8.48;;;;;;;20.12;50.04;97154.25;7293694;19;129198;-38
2024/01/18 07:39:40;;;;;;;241.73;10.40;;;;;;;20.01;49.86;97135.72;7291380;19;132818;-43
2024/01/18 07:42:07;;;;;;;185.23;7.95;;;;;;;19.96;50.21;97135.47;7295956;19;130939;-41
2024/01/18 07:44:33;;;;;;;181.60;7.57;;;;;;;19.98;50.58;97144.72;7292499;19;130270;-44
2024/01/18 07:46:58;;;;;;;204.90;8.23;;;;;;;19.81;50.29;97119.09;7293410;19;129450;-43
2024/01/18 07:49:23;;;;;;;221.35;9.30;;;;;;;19.91;50.66;97143.88;7293733;19;129986;-40
2024/01/18 07:51:49;;;;;;;199.88;8.13;;;;;;;19.92;50.61;97145.47;7295235;19;130432;-39
2024/01/18 07:54:15;;;;;;;197.67;8.47;;;;;;;19.91;50.93;97137.84;7293423;19;129165;-44
2024/01/18 07:56:41;;;;;;;205.38;8.18;;;;;;;19.89;51.19;97143.25;7290063;19;129607;-43
2024/01/18 07:59:06;;;;;;;158.13;6.47;;;;;;;19.92;51.18;97139.44;7292806;19;130315;-42
2024/01/18 08:01:32;;;;;;;153.10;6.57;;;;;;;19.84;50.87;97134.38;7294086;19;131079;-37
2024/01/18 08:03:57;;;;;;;172.57;7.32;;;;;;;19.82;51.05;97126.72;7293658;19;129133;-39
2024/01/18 08:06:22;;;;;;;255.02;11.05;;;;;;;19.81;51.51;97132.13;7293533;19;131247;-40
2024/01/18 08:08:48;;;;;;;143.23;6.38;;;;;;;19.63;51.05;97130.00;7293725;19;131064;-39
2024/01/18 08:11:13;;;;;;;188.65;8.27;;;;;;;19.55;51.42;97117.09;7293381;19;130251;-41
2024/01/18 08:13:42;;;;;;;159.65;6.85;;;;;;;19.53;52.06;97113.03;7294777;19;132594;-41
2024/01/18 08:16:08;;;;;;;186.43;7.80;;;;;;;19.52;51.47;97106.22;7293714;19;129932;-39
2024/01/18 08:18:33;;;;;;;164.23;6.80;;;;;;;19.33;51.42;97092.00;7289986;19;133301;-39
2024/01/18 08:20:59;;;;;;;163.18;7.07;;;;;;;19.50;51.51;97103.00;7291642;19;130333;-44
2024/01/18 08:23:25;;;;;;;197.23;8.10;;;;;;;19.51;51.54;97115.03;7288985;19;130396;-40
2024/01/18 08:25:50;;;;;;;225.40;9.15;;;;;;;19.52;51.12;97127.06;7287304;19;130073;-44
2024/01/18 08:28:17;;;;;;;236.77;9.90;;;;;;;19.56;51.46;97128.28;7288146;19;130009;-38
2024/01/18 08:30:44;;;;;;;185.20;7.88;;;;;;;19.60;51.40;97108.69;7289396;19;131876;-42
2024/01/18 08:33:10;;;;;;;199.55;8.40;;;;;;;19.68;51.18;97121.59;7291200;19;129954;-40
2024/01/18 08:35:35;;;;;;;233.90;9.32;;;;;;;19.67;51.50;97125.22;7288706;19;129521;-39
2024/01/18 08:38:00;;;;;;;169.15;6.82;;;;;;;19.60;51.50;97121.72;7290749;19;130739;-41
2024/01/18 08:40:26;;;;;;;177.00;7.38;;;;;;;19.72;51.17;97133.28;7289426;19;131479;-41
2024/01/18 08:42:51;;;;;;;247.00;10.10;;;;;;;19.66;51.60;97150.47;7288019;19;129869;-40
2024/01/18 08:45:18;;;;;;;241.00;9.82;;;;;;;19.62;51.73;97151.03;7288086;19;129541;-40
2024/01/18 08:47:43;;;;;;;199.18;8.20;;;;;;;19.60;51.88;97150.41;7291682;19;131071;-39
2024/01/18 08:50:09;;;;;;;244.57;9.88;;;;;;;19.60;52.09;97146.00;7287737;19;130890;-40
2024/01/18 08:52:34;;;;;;;206.73;8.32;;;;;;;19.58;51.93;97142.78;7290439;19;128935;-40
2024/01/18 08:54:59;;;;;;;201.38;8.13;;;;;;;19.44;52.21;97136.63;7290562;19;129210;-38
2024/01/18 08:57:28;;;;;;;211.57;8.57;;;;;;;19.54;52.35;97177.19;7289403;19;130161;-40
2024/01/18 08:59:53;;;;;;;165.85;6.75;;;;;;;19.60;52.09;97184.28;7287297;19;131148;-40
2024/01/18 09:02:19;;;;;;;272.25;11.48;;;;;;;19.56;52.07;97196.88;7289413;19;129608;-39
2024/01/18 09:04:44;;;;;;;189.82;7.72;;;;;;;19.52;52.49;97198.22;7287973;19;130868;-44
2024/01/18 09:07:09;;;;;;;186.73;7.65;;;;;;;19.47;52.06;97205.78;7289365;19;130155;-43
2024/01/18 09:09:35;;;;;;;186.52;8.13;;;;;;;19.26;51.55;97180.47;7285940;19;129510;-40
2024/01/18 09:12:00;;;;;;;287.45;11.65;;;;;;;19.41;51.73;97211.72;7289580;19;131213;-39
2024/01/18 09:14:25;;;;;;;203.52;8.63;;;;;;;19.45;52.19;97216.38;7290926;19;129938;-39
2024/01/18 09:16:51;;;;;;;146.85;5.93;;;;;;;19.48;51.44;97215.22;7288070;19;129961;-43
2024/01/18 09:19:16;;;;;;;177.35;7.22;;;;;;;19.48;51.79;97217.00;7287541;19;130251;-44
2024/01/18 09:21:43;;;;;;;270.70;10.85;;;;;;;19.49;51.78;97227.25;7288450;19;129278;-42
2024/01/18 09:24:09;;;;;;;145.05;6.22;;;;;;;19.50;51.59;97222.84;7288700;19;130689;-40
2024/01/18 09:26:35;;;;;;;191.38;8.02;;;;;;;19.53;52.30;97225.09;7286769;19;130267;-42
2024/01/18 09:29:00;;;;;;;225.35;8.85;;;;;;;19.55;51.63;97229.16;7286459;19;129119;-42
2024/01/18 09:31:25;;;;;;;271.05;11.15;;;;;;;19.55;52.04;97230.94;7288263;19;129960;-40
2024/01/18 09:33:51;;;;;;;189.50;8.02;;;;;;;19.59;51.40;97242.59;7289906;19;130407;-41
2024/01/18 09:36:16;;;;;;;152.95;6.40;;;;;;;19.56;51.92;97248.16;7288436;19;130039;-44
2024/01/18 09:38:41;;;;;;;183.23;7.35;;;;;;;19.58;51.95;97241.81;7287921;19;130466;-44
2024/01/18 09:41:08;;;;;;;232.93;9.23;;;;;;;19.51;51.86;97240.09;7295458;19;129415;-43
2024/01/18 09:43:37;;;;;;;213.53;9.40;;;;;;;19.54;52.03;97255.34;7294831;19;129689;-40
2024/01/18 09:46:07;;;;;;;161.68;6.70;;;;;;;19.61;51.28;97266.69;7296500;19;131177;-41
2024/01/18 09:48:36;;;;;;;227.70;9.35;;;;;;;19.57;51.85;97266.22;7293577;19;130642;-39
2024/01/18 09:51:05;;;;;;;251.80;10.60;;;;;;;19.56;51.72;97275.06;7295615;19;129631;-44
2024/01/18 09:53:31;;;;;;;256.05;10.23;;;;;;;19.58;52.29;97273.06;7295921;19;130546;-45
2024/01/18 09:56:22;;;;;;;143.63;6.20;;;;;;;19.55;51.73;97277.84;7295075;19;130155;-39
2024/01/18 09:58:48;;;;;;;242.02;10.05;;;;;;;19.53;51.75;97277.22;7293541;19;132345;-43
2024/01/18 10:01:19;;;;;;;140.70;6.13;;;;;;;19.52;52.47;97289.44;7296686;19;130637;-40
2024/01/18 10:03:45;;;;;;;208.65;8.38;;;;;;;19.40;51.80;97281.25;7294751;19;130113;-39
2024/01/18 10:06:10;;;;;;;225.60;8.98;;;;;;;19.44;51.66;97281.72;7294207;19;131473;-43
2024/01/18 10:08:36;;;;;;;265.52;10.68;;;;;;;19.43;52.21;97299.16;7293609;19;130375;-38
2024/01/18 10:11:01;;;;;;;226.50;9.35;;;;;;;19.40;51.69;97296.91;7295765;19;131288;-39
2024/01/18 10:13:26;;;;;;;222.70;9.02;;;;;;;19.44;51.95;97298.16;7294970;19;131204;-41
2024/01/18 10:15:52;;;;;;;166.05;6.85;;;;;;;19.44;51.46;97292.13;7293857;19;130674;-39
2024/01/18 10:18:18;;;;;;;153.50;6.45;;;;;;;19.42;51.43;97289.72;7293729;19;131467;-39
2024/01/18 10:20:45;;;;;;;166.93;6.87;;;;;;;19.31;52.20;97274.56;7293275;19;129764;-43
2024/01/18 10:23:10;;;;;;;250.57;10.38;;;;;;;19.40;52.54;97299.50;7294874;19;131614;-40
2024/01/18 10:25:36;;;;;;;199.10;8.55;;;;;;;19.56;51.51;97292.47;7292296;19;130239;-39
2024/01/18 10:28:01;;;;;;;182.02;7.30;;;;;;;19.60;51.60;97291.13;7290944;19;129631;-40
2024/01/18 10:30:27;;;;;;;192.68;7.85;;;;;;;19.63;51.06;97295.97;7295878;19;132274;-40
2024/01/18 10:32:52;;;;;;;194.77;8.02;;;;;;;19.62;51.44;97294.38;7294489;19;129209;-42
2024/01/18 10:35:20;;;;;;;246.63;10.48;;;;;;;19.67;51.74;97298.03;7294468;19;130069;-40
2024/01/18 10:37:46;;;;;;;216.90;8.70;;;;;;;19.63;51.43;97295.97;7292579;19;130608;-42
2024/01/18 10:40:17;;;;;;;193.43;8.23;;;;;;;19.63;51.96;97302.00;7292996;19;129285;-39
2024/01/18 10:42:44;;;;;;;272.23;11.02;;;;;;;19.64;51.61;97298.41;7294126;19;129759;-38
2024/01/18 10:45:11;;;;;;;242.38;10.30;;;;;;;19.64;52.04;97294.97;7292677;19;130730;-44
2024/01/18 10:47:37;;;;;;;178.07;7.35;;;;;;;19.61;51.55;97310.97;7293744;19;130651;-38
2024/01/18 10:50:04;;;;;;;205.98;8.73;;;;;;;19.47;51.35;97291.75;7289087;19;129526;-41
2024/01/18 10:52:30;;;;;;;268.13;10.30;;;;;;;19.56;52.20;97302.91;7293811;19;129969;-43
2024/01/18 10:54:58;;;;;;;134.52;5.78;;;;;;;19.57;51.91;97307.16;7293275;19;131665;-40
2024/01/18 10:57:23;;;;;;;218.90;9.15;;;;;;;19.66;51.78;97306.03;7288299;19;131441;-43
2024/01/18 10:59:49;;;;;;;188.10;7.95;;;;;;;19.55;52.37;97303.91;7291921;19;132043;-43
2024/01/18 11:02:15;;;;;;;248.35;10.05;;;;;;;19.45;52.06;97299.78;7293599;19;129456;-41